< < Back
Terminal Aerodrome Forecast


Current Version              Previous Versions:   1  2  3  4  5  6  7  8  9  

Terminal Aerodrome Forecast

783
FTUS44 KBMX 222300
TAFBHM
TAF
KBHM 222320Z 2300/2324 30005KT P6SM SCT025
     FM230300 34004KT P6SM SKC
     FM231500 02008KT P6SM SKC=



Latest METAR

274
SAUS70 KWBC 231100 RRC
MTRBHM
METAR KBHM 231053Z 00000KT 10SM CLR 12/10 A2997 RMK AO2 SLP143
T01220100


USA.gov is the U.S. government's official web portal to all federal, state and local government web resources and services.